createdAt,value
2019-05-17T00:00:43.208Z,101293.48
2019-05-17T00:03:17.069Z,101291.77
2019-05-17T00:05:50.188Z,101291.77
2019-05-17T00:08:33.736Z,101292.16
2019-05-17T00:10:57.955Z,101290.38
2019-05-17T00:13:30.897Z,101293.02
2019-05-17T00:16:03.956Z,101293.02
2019-05-17T00:18:37.120Z,101289.39
2019-05-17T00:21:09.996Z,101284.42
2019-05-17T00:23:42.832Z,101284.42
2019-05-17T00:26:16.445Z,101273.09
2019-05-17T00:28:49.340Z,101272.23
2019-05-17T00:31:22.239Z,101267.66
2019-05-17T00:33:56.617Z,101262.45
2019-05-17T00:36:29.761Z,101260.52
2019-05-17T00:39:03.012Z,101257.75
2019-05-17T00:41:37.509Z,101257.75
2019-05-17T00:44:10.516Z,101253.47
2019-05-17T00:46:43.470Z,101248.41
2019-05-17T00:49:17.253Z,101253.39
2019-05-17T00:51:50.192Z,101253.39
2019-05-17T00:54:23.357Z,101252.53
2019-05-17T00:56:56.710Z,101254.83
2019-05-17T00:59:29.681Z,101254.03
2019-05-17T01:02:02.606Z,101251.41
2019-05-17T01:04:36.874Z,101246.84
2019-05-17T01:07:09.985Z,101238.92
2019-05-17T01:09:42.829Z,101236.21
2019-05-17T01:12:16.462Z,101237.21
2019-05-17T01:14:49.545Z,101237.21
2019-05-17T01:17:22.433Z,101234.15
2019-05-17T01:19:57.339Z,101211.41
2019-05-17T01:22:30.075Z,101211.41
2019-05-17T01:25:03.097Z,101210.55
2019-05-17T01:27:38.145Z,101211.22
2019-05-17T01:30:10.961Z,101209.69
2019-05-17T01:32:46.292Z,101203.42
2019-05-17T01:35:18.512Z,101203.42
2019-05-17T01:37:51.405Z,101208.66
2019-05-17T01:40:26.320Z,101208.66
2019-05-17T01:42:59.164Z,101212.05
2019-05-17T01:45:32.011Z,101202.97
2019-05-17T01:48:07.047Z,101206.53
2019-05-17T01:50:39.640Z,101206.53
2019-05-17T01:53:16.618Z,101202.47
2019-05-17T01:55:49.960Z,101202.61
2019-05-17T01:58:23.107Z,101205.74
2019-05-17T02:00:57.338Z,101205.74
2019-05-17T02:03:30.827Z,101202.33
2019-05-17T02:06:03.863Z,101194.41
2019-05-17T02:08:37.353Z,101186.72
2019-05-17T02:11:10.327Z,101184.30
2019-05-17T02:13:43.299Z,101187.98
2019-05-17T02:16:16.676Z,101187.86
2019-05-17T02:18:49.662Z,101182.37
2019-05-17T02:21:22.563Z,101183.73
2019-05-17T02:23:57.143Z,101180.17
2019-05-17T02:26:30.177Z,101180.17
2019-05-17T02:29:03.204Z,101177.67
2019-05-17T02:31:37.271Z,101177.67
2019-05-17T02:34:13.877Z,101176.75
2019-05-17T02:36:45.015Z,101177.57
2019-05-17T02:39:18.214Z,101173.88
2019-05-17T02:41:53.328Z,101170.17
2019-05-17T02:44:25.914Z,101175.73
2019-05-17T02:46:58.815Z,101171.31
2019-05-17T02:49:33.080Z,101167.11
2019-05-17T02:52:06.412Z,101159.19
2019-05-17T02:54:39.401Z,101159.19
2019-05-17T02:57:14.206Z,101165.11
2019-05-17T02:59:47.146Z,101162.47
2019-05-17T03:02:24.306Z,101157.34
2019-05-17T03:04:55.157Z,101160.48
2019-05-17T03:07:28.221Z,101160.48
2019-05-17T03:10:13.921Z,101157.62
2019-05-17T03:12:36.122Z,101151.29
2019-05-17T03:15:12.654Z,101151.29
2019-05-17T03:17:44.171Z,101154.70
2019-05-17T03:20:17.338Z,101152.86
2019-05-17T03:22:52.579Z,101152.86
2019-05-17T03:25:25.374Z,101156.48
2019-05-17T03:27:58.360Z,101151.86
2019-05-17T03:30:36.878Z,101151.86
2019-05-17T03:33:08.036Z,101153.27
2019-05-17T03:35:45.702Z,101147.86
2019-05-17T03:38:16.220Z,101141.65
2019-05-17T03:41:17.139Z,101139.94
2019-05-17T03:43:24.004Z,101136.73
2019-05-17T03:45:57.114Z,101128.28
2019-05-17T03:48:33.025Z,101128.28
2019-05-17T03:51:04.841Z,101129.61
2019-05-17T03:53:37.762Z,101131.20
2019-05-17T03:56:13.377Z,101131.20
2019-05-17T03:58:45.758Z,101129.13
2019-05-17T04:01:19.021Z,101125.75
2019-05-17T04:03:52.883Z,101124.05
2019-05-17T04:06:26.153Z,101124.05
2019-05-17T04:08:59.080Z,101125.39
2019-05-17T04:11:36.218Z,101122.07
2019-05-17T04:14:06.880Z,101120.42
2019-05-17T04:16:42.601Z,101121.48
2019-05-17T04:19:15.166Z,101122.84
2019-05-17T04:21:48.124Z,101125.61
2019-05-17T04:24:23.058Z,101125.61
2019-05-17T04:26:56.375Z,101122.69
2019-05-17T04:29:32.856Z,101121.75
2019-05-17T04:32:04.413Z,101121.75
2019-05-17T04:34:37.445Z,101126.69
2019-05-17T04:37:13.078Z,101127.05
2019-05-17T04:39:45.285Z,101121.69
2019-05-17T04:42:18.252Z,101124.36
2019-05-17T04:44:52.722Z,101119.59
2019-05-17T04:47:26.273Z,101122.56
2019-05-17T04:49:59.284Z,101118.08
2019-05-17T04:52:33.555Z,101118.08
2019-05-17T04:55:07.149Z,101121.02
2019-05-17T04:57:43.317Z,101116.78
2019-05-17T05:00:15.634Z,101112.29
2019-05-17T05:02:48.764Z,101109.73
2019-05-17T05:05:22.854Z,101109.73
2019-05-17T05:07:56.128Z,101102.41
2019-05-17T05:10:29.538Z,101105.23
2019-05-17T05:13:03.333Z,101105.03
2019-05-17T05:15:43.317Z,101105.03
2019-05-17T05:18:15.297Z,101104.23
2019-05-17T05:20:48.539Z,101109.70
2019-05-17T05:23:23.763Z,101104.32
2019-05-17T05:25:56.596Z,101104.42
2019-05-17T05:28:31.781Z,101103.67
2019-05-17T05:31:04.679Z,101101.97
2019-05-17T05:33:37.626Z,101105.48
2019-05-17T05:36:11.422Z,101107.53
2019-05-17T05:38:44.698Z,101106.98
2019-05-17T05:41:17.759Z,101102.27
2019-05-17T05:43:52.615Z,101106.45
2019-05-17T05:46:25.621Z,101106.06
2019-05-17T05:48:58.690Z,101106.06
2019-05-17T05:51:32.070Z,101105.81
2019-05-17T05:54:05.283Z,101105.66
2019-05-17T05:56:38.226Z,101097.68
2019-05-17T05:59:12.053Z,101097.68
2019-05-17T06:01:45.465Z,101100.44
2019-05-17T06:04:18.622Z,101097.52
2019-05-17T06:06:52.231Z,101097.52
2019-05-17T06:09:25.689Z,101098.09
2019-05-17T06:11:58.712Z,101094.80
2019-05-17T06:14:32.329Z,101090.80
2019-05-17T06:17:05.276Z,101098.57
2019-05-17T06:19:38.244Z,101091.75
2019-05-17T06:22:12.128Z,101091.75
2019-05-17T06:24:45.451Z,101095.64
2019-05-17T06:27:18.406Z,101095.64
2019-05-17T06:29:51.636Z,101093.26
2019-05-17T06:32:24.553Z,101095.12
2019-05-17T06:34:57.606Z,101091.73
2019-05-17T06:37:31.785Z,101089.77
2019-05-17T06:40:05.196Z,101089.77
2019-05-17T06:42:41.391Z,101091.54
2019-05-17T06:45:13.468Z,101092.49
2019-05-17T06:47:46.374Z,101094.95
2019-05-17T06:50:19.530Z,101095.30
2019-05-17T06:52:53.940Z,101095.30
2019-05-17T06:55:26.963Z,101090.56
2019-05-17T06:58:01.732Z,101101.59
2019-05-17T07:00:35.034Z,101101.59
2019-05-17T07:03:09.548Z,101084.84
2019-05-17T07:05:42.713Z,101092.05
2019-05-17T07:08:15.567Z,101090.84
2019-05-17T07:10:50.269Z,101093.31
2019-05-17T07:13:23.441Z,101081.08
2019-05-17T07:15:56.411Z,101081.08
2019-05-17T07:18:29.973Z,101079.39
2019-05-17T07:21:03.697Z,101079.39
2019-05-17T07:23:36.746Z,101081.77
2019-05-17T07:26:12.019Z,101073.09
2019-05-17T07:28:44.800Z,101065.74
2019-05-17T07:31:21.239Z,101068.80
2019-05-17T07:33:52.754Z,101068.80
2019-05-17T07:36:25.722Z,101070.91
2019-05-17T07:39:00.808Z,101060.95
2019-05-17T07:41:33.361Z,101060.95
2019-05-17T07:44:06.323Z,101069.03
2019-05-17T07:46:40.210Z,101063.86
2019-05-17T07:49:13.303Z,101066.17
2019-05-17T07:51:46.640Z,101066.17
2019-05-17T07:54:19.852Z,101061.22
2019-05-17T07:56:52.849Z,101056.09
2019-05-17T07:59:25.759Z,101050.80
2019-05-17T08:01:59.706Z,101050.80
2019-05-17T08:04:32.716Z,101056.27
2019-05-17T08:07:05.802Z,101052.39
2019-05-17T08:09:40.433Z,101045.33
2019-05-17T08:12:13.586Z,101045.36
2019-05-17T08:14:46.752Z,101045.70
2019-05-17T08:17:19.983Z,101045.70
2019-05-17T08:19:52.825Z,101045.89
2019-05-17T08:22:25.879Z,101052.34
2019-05-17T08:25:00.089Z,101052.34
2019-05-17T08:27:33.310Z,101045.86
2019-05-17T08:30:06.878Z,101034.73
2019-05-17T08:32:40.545Z,101034.73
2019-05-17T08:35:13.764Z,101042.17
2019-05-17T08:37:46.702Z,101042.17
2019-05-17T08:40:20.146Z,101032.95
2019-05-17T08:42:53.151Z,101032.95
2019-05-17T08:45:26.187Z,101027.19
2019-05-17T08:48:01.732Z,101021.39
2019-05-17T08:50:34.626Z,101027.52
2019-05-17T08:53:07.563Z,101022.06
2019-05-17T08:55:41.291Z,101029.06
2019-05-17T08:58:14.283Z,101020.72
2019-05-17T09:00:47.343Z,101017.49
2019-05-17T09:03:20.299Z,101015.09
2019-05-17T09:05:53.217Z,101015.09
2019-05-17T09:08:26.339Z,101010.70
2019-05-17T09:11:00.314Z,101011.66
2019-05-17T09:13:33.606Z,101003.29
2019-05-17T09:16:06.626Z,101003.29
2019-05-17T09:18:39.717Z,101004.14
2019-05-17T09:21:12.683Z,101001.09
2019-05-17T09:23:45.712Z,100997.44
2019-05-17T09:26:20.011Z,100997.44
2019-05-17T09:28:53.344Z,101000.39
2019-05-17T09:31:26.245Z,101000.77
2019-05-17T09:34:00.243Z,101000.61
2019-05-17T09:36:33.321Z,100998.01
2019-05-17T09:39:06.721Z,100996.43
2019-05-17T09:41:40.040Z,100988.27
2019-05-17T09:44:16.341Z,100991.66
2019-05-17T09:46:50.312Z,100983.20
2019-05-17T09:49:23.168Z,100987.99
2019-05-17T09:51:56.112Z,100984.72
2019-05-17T09:54:41.606Z,100979.67
2019-05-17T09:57:03.905Z,100982.59
2019-05-17T09:59:37.240Z,100985.23
2019-05-17T10:02:10.889Z,100978.85
2019-05-17T10:04:44.153Z,100978.85
2019-05-17T10:07:17.011Z,100977.68
2019-05-17T10:09:50.758Z,100960.73
2019-05-17T10:12:23.710Z,100964.06
2019-05-17T10:14:56.792Z,100965.25
2019-05-17T10:17:29.678Z,100960.39
2019-05-17T10:20:02.763Z,100959.27
2019-05-17T10:22:35.904Z,100959.27
2019-05-17T10:25:09.677Z,100960.81
2019-05-17T10:27:42.903Z,100946.51
2019-05-17T10:30:16.095Z,100937.95
2019-05-17T10:32:50.598Z,100940.27
2019-05-17T10:35:23.619Z,100937.80
2019-05-17T10:37:59.331Z,100940.91
2019-05-17T10:40:31.589Z,100935.84
2019-05-17T10:43:04.526Z,100935.84
2019-05-17T10:45:39.790Z,100941.63
2019-05-17T10:48:12.106Z,100938.36
2019-05-17T10:50:45.013Z,100937.03
2019-05-17T10:53:20.176Z,100937.03
2019-05-17T10:55:52.625Z,100933.06
2019-05-17T10:58:25.518Z,100933.06
2019-05-17T11:01:00.845Z,100935.21
2019-05-17T11:03:33.619Z,100931.31
2019-05-17T11:06:06.905Z,100924.23
2019-05-17T11:08:39.879Z,100933.38
2019-05-17T11:11:12.923Z,100933.38
2019-05-17T11:13:45.826Z,100930.47
2019-05-17T11:16:18.814Z,100934.20
2019-05-17T11:18:51.809Z,100934.20
2019-05-17T11:21:24.783Z,100935.23
2019-05-17T11:23:57.749Z,100935.23
2019-05-17T11:26:30.900Z,100937.16
2019-05-17T11:29:04.552Z,100937.16
2019-05-17T11:31:37.598Z,100931.59
2019-05-17T11:34:10.549Z,100931.59
2019-05-17T11:36:43.655Z,100934.75
2019-05-17T11:39:16.613Z,100939.50
2019-05-17T11:41:49.636Z,100935.63
2019-05-17T11:44:22.519Z,100935.63
2019-05-17T11:46:55.437Z,100935.37
2019-05-17T11:49:28.607Z,100932.98
2019-05-17T11:52:02.118Z,100932.98
2019-05-17T11:54:34.949Z,100932.09
2019-05-17T11:57:07.834Z,100926.03
2019-05-17T11:59:40.746Z,100925.73
2019-05-17T12:02:13.598Z,100925.73
2019-05-17T12:04:46.444Z,100907.39
2019-05-17T12:07:19.835Z,100911.87
2019-05-17T12:09:52.681Z,100909.78
2019-05-17T12:12:25.564Z,100909.14
2019-05-17T12:14:58.404Z,100909.14
2019-05-17T12:17:31.287Z,100905.72
2019-05-17T12:20:04.521Z,100914.91
2019-05-17T12:22:37.970Z,100914.91
2019-05-17T12:25:11.384Z,100914.52
2019-05-17T12:27:44.273Z,100904.66
2019-05-17T12:30:20.851Z,100904.66
2019-05-17T12:32:54.009Z,100902.86
2019-05-17T12:35:27.076Z,100906.31
2019-05-17T12:37:59.971Z,100906.31
2019-05-17T12:40:32.953Z,100898.18
2019-05-17T12:43:05.839Z,100903.28
2019-05-17T12:45:38.744Z,100904.10
2019-05-17T12:48:11.624Z,100898.17
2019-05-17T12:50:44.733Z,100902.38
2019-05-17T12:53:17.616Z,100902.38
2019-05-17T12:55:50.448Z,100906.84
2019-05-17T12:58:23.396Z,100903.92
2019-05-17T13:00:56.270Z,100903.92
2019-05-17T13:03:29.477Z,100906.22
2019-05-17T13:06:02.337Z,100892.23
2019-05-17T13:08:35.213Z,100892.23
2019-05-17T13:11:08.142Z,100892.72
2019-05-17T13:13:41.197Z,100889.09
2019-05-17T13:16:17.992Z,100890.14
2019-05-17T13:18:48.978Z,100890.14
2019-05-17T13:21:21.815Z,100890.62
2019-05-17T13:23:54.725Z,100890.62
2019-05-17T13:26:27.564Z,100883.43
2019-05-17T13:29:00.556Z,100887.91
2019-05-17T13:31:33.710Z,100879.27
2019-05-17T13:34:06.723Z,100880.94
2019-05-17T13:36:39.581Z,100879.98
2019-05-17T13:39:12.493Z,100882.99
2019-05-17T13:41:45.345Z,100877.52
2019-05-17T13:44:18.429Z,100877.52
2019-05-17T13:46:51.596Z,100876.69
2019-05-17T13:49:24.529Z,100876.41
2019-05-17T13:51:57.389Z,100872.49
2019-05-17T13:54:30.373Z,100872.95
2019-05-17T13:57:03.252Z,100872.95
2019-05-17T13:59:36.157Z,100878.16
2019-05-17T14:02:09.006Z,100877.34
2019-05-17T14:04:41.884Z,100877.98
2019-05-17T14:07:14.720Z,100875.95
2019-05-17T14:09:47.665Z,100875.95
2019-05-17T14:12:20.509Z,100869.16
2019-05-17T14:14:53.694Z,100879.18
2019-05-17T14:17:26.536Z,100879.18
2019-05-17T14:19:59.512Z,100873.95
2019-05-17T14:22:32.342Z,100874.13
2019-05-17T14:25:06.190Z,100872.77
2019-05-17T14:27:39.023Z,100872.90
2019-05-17T14:30:12.404Z,100876.14
2019-05-17T14:32:46.237Z,100875.13
2019-05-17T14:35:19.121Z,100867.33
2019-05-17T14:37:51.958Z,100871.40
2019-05-17T14:40:24.840Z,100867.51
2019-05-17T14:42:57.689Z,100867.08
2019-05-17T14:45:30.557Z,100866.27
2019-05-17T14:48:03.543Z,100861.03
2019-05-17T14:50:36.499Z,100861.55
2019-05-17T14:53:09.665Z,100862.97
2019-05-17T14:55:42.662Z,100861.98
2019-05-17T14:58:15.481Z,100861.98
2019-05-17T15:00:48.498Z,100867.91
2019-05-17T15:03:21.336Z,100859.92
2019-05-17T15:05:54.313Z,100860.26
2019-05-17T15:08:27.146Z,100855.48
2019-05-17T15:11:00.034Z,100861.20
2019-05-17T15:13:32.892Z,100861.20
2019-05-17T15:16:05.927Z,100857.47
2019-05-17T15:18:39.010Z,100857.27
2019-05-17T15:21:11.914Z,100852.50
2019-05-17T15:23:45.088Z,100855.56
2019-05-17T15:26:17.968Z,100849.62
2019-05-17T15:28:50.817Z,100848.26
2019-05-17T15:31:23.685Z,100850.99
2019-05-17T15:33:56.776Z,100850.37
2019-05-17T15:36:29.955Z,100840.34
2019-05-17T15:39:04.288Z,100839.22
2019-05-17T15:41:37.173Z,100838.66
2019-05-17T15:44:10.011Z,100842.58
2019-05-17T15:46:42.891Z,100835.76
2019-05-17T15:49:15.721Z,100835.76
2019-05-17T15:51:48.911Z,100837.11
2019-05-17T15:54:21.785Z,100836.41
2019-05-17T15:56:54.714Z,100837.02
2019-05-17T15:59:27.545Z,100833.87
2019-05-17T16:02:00.428Z,100833.86
2019-05-17T16:04:33.264Z,100835.45
2019-05-17T16:07:06.432Z,100835.81
2019-05-17T16:09:39.252Z,100822.58
2019-05-17T16:12:12.170Z,100819.97
2019-05-17T16:14:45.005Z,100819.97
2019-05-17T16:17:18.157Z,100825.64
2019-05-17T16:19:51.022Z,100814.25
2019-05-17T16:22:23.899Z,100814.25
2019-05-17T16:24:56.778Z,100811.19
2019-05-17T16:27:29.932Z,100817.41
2019-05-17T16:30:02.999Z,100806.84
2019-05-17T16:32:36.054Z,100811.91
2019-05-17T16:35:09.360Z,100811.91
2019-05-17T16:37:42.388Z,100811.31
2019-05-17T16:40:15.491Z,100805.19
2019-05-17T16:42:48.400Z,100806.91
2019-05-17T16:45:21.237Z,100804.86
2019-05-17T16:47:54.177Z,100802.49
2019-05-17T16:50:27.078Z,100802.49
2019-05-17T16:53:06.109Z,100805.28
2019-05-17T16:55:35.519Z,100807.14
2019-05-17T16:58:08.382Z,100798.98
2019-05-17T17:00:41.686Z,100794.18
2019-05-17T17:03:14.786Z,100796.37
2019-05-17T17:05:47.912Z,100796.71
2019-05-17T17:08:21.008Z,100796.20
2019-05-17T17:10:54.050Z,100794.67
2019-05-17T17:13:33.174Z,100800.80
2019-05-17T17:16:01.937Z,100798.73
2019-05-17T17:18:35.093Z,100798.73
2019-05-17T17:21:08.096Z,100794.34
2019-05-17T17:23:40.998Z,100798.09
2019-05-17T17:26:14.294Z,100794.75
2019-05-17T17:28:47.274Z,100793.45
2019-05-17T17:31:20.504Z,100793.45
2019-05-17T17:33:53.440Z,100791.61
2019-05-17T17:36:27.543Z,100784.78
2019-05-17T17:39:01.081Z,100779.34
2019-05-17T17:41:33.912Z,100779.34
2019-05-17T17:44:07.194Z,100787.50
2019-05-17T17:46:40.341Z,100787.70
2019-05-17T17:49:13.400Z,100787.70
2019-05-17T17:51:46.690Z,100787.19
2019-05-17T17:54:19.594Z,100798.75
2019-05-17T17:56:52.606Z,100798.75
2019-05-17T17:59:25.881Z,100798.58
2019-05-17T18:01:58.763Z,100799.59
2019-05-17T18:04:31.850Z,100800.11
2019-05-17T18:07:04.873Z,100792.25
2019-05-17T18:09:37.913Z,100790.72
2019-05-17T18:12:11.016Z,100786.51
2019-05-17T18:14:44.178Z,100794.99
2019-05-17T18:17:17.721Z,100794.99
2019-05-17T18:19:51.156Z,100796.02
2019-05-17T18:22:23.997Z,100787.52
2019-05-17T18:24:56.968Z,100787.52
2019-05-17T18:27:29.943Z,100784.28
2019-05-17T18:30:03.299Z,100783.44
2019-05-17T18:32:36.438Z,100784.14
2019-05-17T18:35:09.409Z,100784.14
2019-05-17T18:37:43.111Z,100783.28
2019-05-17T18:40:16.153Z,100790.07
2019-05-17T18:42:49.234Z,100790.07
2019-05-17T18:45:22.487Z,100789.55
2019-05-17T18:47:56.013Z,100785.16
2019-05-17T18:50:28.897Z,100785.16
2019-05-17T18:53:02.592Z,100783.61
2019-05-17T18:55:36.421Z,100791.73
2019-05-17T18:58:09.362Z,100791.73
2019-05-17T19:00:42.750Z,100787.81
2019-05-17T19:03:15.742Z,100794.75
2019-05-17T19:05:48.770Z,100791.66
2019-05-17T19:08:22.051Z,100791.66
2019-05-17T19:10:55.018Z,100787.91
2019-05-17T19:13:28.152Z,100786.86
2019-05-17T19:16:01.295Z,100786.86
2019-05-17T19:18:34.237Z,100784.45
2019-05-17T19:21:07.210Z,100783.61
2019-05-17T19:23:40.444Z,100784.94
2019-05-17T19:26:13.353Z,100789.96
2019-05-17T19:28:46.329Z,100789.96
2019-05-17T19:31:19.375Z,100785.20
2019-05-17T19:33:52.310Z,100791.13
2019-05-17T19:36:25.585Z,100780.27
2019-05-17T19:38:58.588Z,100786.55
2019-05-17T19:41:31.951Z,100783.14
2019-05-17T19:44:05.160Z,100783.14
2019-05-17T19:46:38.098Z,100786.52
2019-05-17T19:49:11.404Z,100783.96
2019-05-17T19:51:44.829Z,100789.73
2019-05-17T19:54:17.696Z,100783.27
2019-05-17T19:56:50.645Z,100790.69
2019-05-17T19:59:23.778Z,100790.69
2019-05-17T20:01:56.713Z,100787.13
2019-05-17T20:04:29.836Z,100787.13
2019-05-17T20:07:02.979Z,100787.62
2019-05-17T20:09:35.859Z,100787.44
2019-05-17T20:12:08.928Z,100791.67
2019-05-17T20:14:42.361Z,100791.67
2019-05-17T20:17:15.689Z,100786.25
2019-05-17T20:19:48.644Z,100789.65
2019-05-17T20:22:21.569Z,100781.02
2019-05-17T20:24:54.535Z,100781.02
2019-05-17T20:27:27.789Z,100781.17
2019-05-17T20:30:00.660Z,100778.61
2019-05-17T20:32:33.581Z,100773.19
2019-05-17T20:35:07.796Z,100771.52
2019-05-17T20:37:40.708Z,100771.52
2019-05-17T20:40:14.128Z,100768.28
2019-05-17T20:42:47.075Z,100773.19
2019-05-17T20:45:32.003Z,100773.19
2019-05-17T20:47:55.560Z,100771.33
2019-05-17T20:50:28.413Z,100771.69
2019-05-17T20:53:01.422Z,100767.43
2019-05-17T20:55:34.291Z,100767.43
2019-05-17T20:58:07.444Z,100767.62
2019-05-17T21:00:40.309Z,100767.62
2019-05-17T21:03:14.061Z,100762.19
2019-05-17T21:05:46.988Z,100765.76
2019-05-17T21:08:19.963Z,100760.27
2019-05-17T21:10:52.817Z,100765.52
2019-05-17T21:13:25.817Z,100762.45
2019-05-17T21:15:58.971Z,100762.45
2019-05-17T21:18:31.941Z,100758.58
2019-05-17T21:21:04.863Z,100759.59
2019-05-17T21:23:38.059Z,100759.59
2019-05-17T21:26:10.917Z,100751.30
2019-05-17T21:28:47.070Z,100755.67
2019-05-17T21:31:18.394Z,100749.41
2019-05-17T21:33:51.373Z,100754.83
2019-05-17T21:36:24.255Z,100754.83
2019-05-17T21:38:57.261Z,100756.88
2019-05-17T21:41:30.838Z,100748.39
2019-05-17T21:44:04.836Z,100749.59
2019-05-17T21:46:37.684Z,100733.48
2019-05-17T21:49:10.654Z,100737.88
2019-05-17T21:51:43.761Z,100741.11
2019-05-17T21:54:16.682Z,100735.69
2019-05-17T21:56:49.560Z,100740.11
2019-05-17T21:59:22.459Z,100740.11
2019-05-17T22:01:55.561Z,100739.60
2019-05-17T22:04:28.805Z,100742.66
2019-05-17T22:07:01.649Z,100744.86
2019-05-17T22:09:35.110Z,100744.86
2019-05-17T22:12:08.043Z,100747.92
2019-05-17T22:14:41.030Z,100739.28
2019-05-17T22:17:13.974Z,100739.28
2019-05-17T22:19:46.904Z,100745.37
2019-05-17T22:22:19.761Z,100745.37
2019-05-17T22:24:52.970Z,100745.20
2019-05-17T22:27:26.046Z,100743.69
2019-05-17T22:29:58.942Z,100749.27
2019-05-17T22:32:31.789Z,100745.18
2019-05-17T22:35:05.334Z,100745.18
2019-05-17T22:37:38.173Z,100750.79
2019-05-17T22:40:11.234Z,100751.30
2019-05-17T22:42:44.250Z,100751.30
2019-05-17T22:45:17.267Z,100747.57
2019-05-17T22:47:50.132Z,100748.58
2019-05-17T22:50:23.029Z,100743.66
2019-05-17T22:52:55.882Z,100743.66
2019-05-17T22:55:28.872Z,100741.97
2019-05-17T22:58:01.784Z,100741.80
2019-05-17T23:00:35.019Z,100743.34
2019-05-17T23:03:07.865Z,100743.34
2019-05-17T23:05:41.182Z,100738.44
2019-05-17T23:08:14.038Z,100740.45
2019-05-17T23:10:46.941Z,100740.45
2019-05-17T23:13:19.800Z,100746.91
2019-05-17T23:15:52.734Z,100741.86
2019-05-17T23:18:25.640Z,100741.86
2019-05-17T23:20:58.624Z,100745.77
2019-05-17T23:23:31.625Z,100744.41
2019-05-17T23:26:04.623Z,100744.41
2019-05-17T23:28:37.776Z,100744.91
2019-05-17T23:31:10.664Z,100744.91
2019-05-17T23:33:43.838Z,100745.09
2019-05-17T23:36:16.783Z,100741.72
2019-05-17T23:38:49.634Z,100735.10
2019-05-17T23:41:22.856Z,100735.10
2019-05-17T23:43:55.769Z,100732.20
2019-05-17T23:46:28.750Z,100739.33
2019-05-17T23:49:01.819Z,100739.33
2019-05-17T23:51:34.798Z,100736.62
2019-05-17T23:54:07.989Z,100734.23
2019-05-17T23:56:41.304Z,100731.17
2019-05-17T23:59:14.502Z,100731.17
